Time;durP1;ratioP1;P1;durP2;ratioP2;P2;SDS_P1;SDS_P2;PMS_P1;PMS_P2;Temp;Humidity;BMP_temperature;BMP_pressure;BME280_temperature;BME280_humidity;BME280_pressure;Samples;Min_cycle;Max_cycle;Signal;HPM_P1;HPM_P2
2022/03/20 00:01:50;;;;;;;11.10;5.68;;;;;;;3.57;30.50;102139.53;4480953;32;35327;-78
2022/03/20 00:04:37;;;;;;;15.20;5.75;;;;;;;3.69;30.54;102138.94;4481328;32;34663;-78
2022/03/20 00:07:23;;;;;;;12.37;5.22;;;;;;;3.52;30.79;102136.56;4480033;32;35357;-78
2022/03/20 00:10:10;;;;;;;12.23;5.25;;;;;;;3.20;31.41;102131.87;4479749;32;34615;-78
2022/03/20 00:12:56;;;;;;;11.43;5.95;;;;;;;3.36;30.77;102134.25;4467881;32;34135;-77
2022/03/20 00:15:44;;;;;;;13.62;5.50;;;;;;;3.59;30.51;102129.31;4481282;32;35637;-78
2022/03/20 00:18:31;;;;;;;10.73;5.45;;;;;;;3.77;30.36;102131.44;4481077;32;34922;-77
2022/03/20 00:21:17;;;;;;;11.27;5.30;;;;;;;3.58;30.62;102122.19;4481644;32;34319;-78
2022/03/20 00:24:04;;;;;;;13.62;5.65;;;;;;;3.54;30.77;102129.09;4481546;32;33734;-78
2022/03/20 00:26:56;;;;;;;11.43;5.65;;;;;;;3.60;30.80;102127.44;4469816;32;34566;-78
2022/03/20 00:29:42;;;;;;;;;;;;;;;3.74;30.54;102128.31;4478015;32;35483;-78
2022/03/20 00:32:29;;;;;;;11.40;5.28;;;;;;;3.61;30.63;102131.81;4480977;32;34880;-78
2022/03/20 00:35:15;;;;;;;12.23;5.55;;;;;;;3.24;31.33;102133.12;4459655;32;34175;-77
2022/03/20 00:38:02;;;;;;;12.48;5.47;;;;;;;3.30;31.24;102126.88;4469029;32;35586;-78
2022/03/20 00:40:49;;;;;;;12.25;5.62;;;;;;;3.28;30.92;102129.00;4478702;32;34867;-78
2022/03/20 00:43:36;;;;;;;12.60;5.30;;;;;;;3.11;31.50;102121.19;4479945;32;34746;-78
2022/03/20 00:46:22;;;;;;;10.50;5.43;;;;;;;3.22;31.05;102124.38;4471997;32;33688;-78
2022/03/20 00:49:09;;;;;;;9.23;4.87;;;;;;;3.46;30.94;102125.72;4480377;32;34649;-78
2022/03/20 00:51:55;;;;;;;12.35;5.40;;;;;;;3.45;31.05;102129.47;4480837;32;35070;-78
2022/03/20 00:54:41;;;;;;;12.43;5.30;;;;;;;3.43;30.87;102136.97;4480943;32;33467;-78
2022/03/20 00:57:27;;;;;;;10.63;5.15;;;;;;;3.08;31.78;102124.31;4480944;32;35518;-78
2022/03/20 01:00:16;;;;;;;11.05;5.57;;;;;;;3.04;31.59;102123.00;4481140;32;34585;-78
2022/03/20 01:03:02;;;;;;;12.30;5.93;;;;;;;2.99;32.07;102120.09;4473868;32;34665;-77
2022/03/20 01:05:49;;;;;;;12.25;6.45;;;;;;;3.30;31.59;102127.75;4469016;32;35482;-78
2022/03/20 01:08:39;;;;;;;12.20;5.93;;;;;;;3.25;31.56;102113.12;4468644;32;34118;-78
2022/03/20 01:11:26;;;;;;;13.88;6.55;;;;;;;3.34;31.84;102112.75;4468228;32;34036;-78
2022/03/20 01:14:13;;;;;;;11.25;6.00;;;;;;;3.39;31.87;102114.87;4480963;32;35019;-78
2022/03/20 01:16:59;;;;;;;10.93;5.12;;;;;;;3.66;31.72;102115.78;4480224;32;34626;-78
2022/03/20 01:19:45;;;;;;;10.77;5.53;;;;;;;3.37;32.27;102116.94;4480871;32;34061;-78
2022/03/20 01:22:32;;;;;;;13.55;6.00;;;;;;;3.18;32.38;102115.78;4480595;32;32770;-77
2022/03/20 01:25:19;;;;;;;10.57;5.25;;;;;;;3.07;32.63;102122.59;4480350;32;35915;-77
2022/03/20 01:28:05;;;;;;;14.35;5.80;;;;;;;3.23;32.40;102132.28;4479364;32;35534;-77
2022/03/20 01:30:52;;;;;;;12.35;5.43;;;;;;;3.28;32.54;102129.00;4468007;32;35076;-78
2022/03/20 01:33:38;;;;;;;13.15;5.95;;;;;;;3.01;32.81;102128.00;4469416;32;34152;-77
2022/03/20 01:36:25;;;;;;;13.73;5.45;;;;;;;3.08;32.84;102137.00;4480412;32;35040;-78
2022/03/20 01:39:12;;;;;;;10.75;5.75;;;;;;;2.62;33.58;102137.56;4479177;32;34725;-77
2022/03/20 01:41:58;;;;;;;13.23;5.60;;;;;;;2.36;34.09;102136.31;4480417;32;35058;-77
2022/03/20 01:44:46;;;;;;;13.15;5.68;;;;;;;2.49;34.00;102146.41;4479697;32;35653;-77
2022/03/20 01:47:33;;;;;;;10.57;5.53;;;;;;;2.52;34.32;102146.00;4480600;32;35962;-77
2022/03/20 01:50:21;;;;;;;12.75;5.95;;;;;;;2.48;34.22;102150.97;4480315;32;34887;-77
2022/03/20 01:53:08;;;;;;;13.15;5.65;;;;;;;2.50;34.47;102152.66;4478048;32;33864;-77
2022/03/20 01:55:54;;;;;;;12.45;5.60;;;;;;;2.32;34.77;102161.25;4477142;32;34823;-77
2022/03/20 01:58:40;;;;;;;19.35;6.55;;;;;;;1.95;35.15;102155.91;4470603;32;34911;-77
2022/03/20 02:01:27;;;;;;;14.55;5.93;;;;;;;1.99;35.33;102153.62;4468147;32;34701;-77
2022/03/20 02:04:14;;;;;;;14.45;6.53;;;;;;;2.18;34.88;102161.09;4480468;32;34546;-78
2022/03/20 02:07:02;;;;;;;10.45;5.35;;;;;;;2.19;35.29;102157.41;4476849;32;35600;-77
2022/03/20 02:09:48;;;;;;;11.32;5.60;;;;;;;1.97;35.66;102169.22;4480019;32;34488;-77
2022/03/20 02:12:36;;;;;;;9.77;5.05;;;;;;;2.10;35.29;102163.09;4480214;32;35508;-77
2022/03/20 02:15:22;;;;;;;11.60;5.47;;;;;;;2.24;35.15;102165.75;4478598;32;34863;-77
2022/03/20 02:18:11;;;;;;;12.80;5.43;;;;;;;1.90;35.88;102176.41;4468121;32;35587;-77
2022/03/20 02:21:01;;;;;;;13.85;5.25;;;;;;;2.06;35.97;102168.06;4475489;32;35020;-77
2022/03/20 02:23:48;;;;;;;12.70;5.80;;;;;;;1.72;36.42;102172.28;4456909;32;34505;-77
2022/03/20 02:26:34;;;;;;;10.88;5.90;;;;;;;2.01;35.76;102176.75;4479422;32;35130;-77
2022/03/20 02:29:21;;;;;;;12.02;5.72;;;;;;;1.83;36.15;102170.97;4476726;32;35292;-77
2022/03/20 02:32:11;;;;;;;15.73;5.97;;;;;;;2.02;36.33;102174.88;4478919;32;34511;-77
2022/03/20 02:35:01;;;;;;;13.32;5.40;;;;;;;1.94;36.25;102167.75;4478828;32;35653;-77
2022/03/20 02:37:51;;;;;;;11.93;5.05;;;;;;;2.13;36.04;102173.53;4479549;32;33799;-77
2022/03/20 02:40:39;;;;;;;14.27;5.65;;;;;;;2.03;36.13;102173.88;4468292;32;33682;-77
2022/03/20 02:43:29;;;;;;;10.57;5.60;;;;;;;1.88;36.71;102171.22;4479393;32;35013;-78
2022/03/20 02:46:17;;;;;;;12.77;5.50;;;;;;;1.69;37.18;102171.84;4477779;32;35024;-77
2022/03/20 02:49:06;;;;;;;13.18;5.87;;;;;;;1.74;37.11;102174.81;4467576;32;35158;-77
2022/03/20 02:52:00;;;;;;;10.10;5.32;;;;;;;1.70;37.23;102179.72;4456078;32;35119;-77
2022/03/20 02:54:46;;;;;;;14.00;6.53;;;;;;;1.77;37.11;102180.66;4456725;32;35977;-77
2022/03/20 02:57:34;;;;;;;12.55;6.30;;;;;;;1.83;37.08;102179.06;4469795;32;34125;-77
2022/03/20 03:00:22;;;;;;;12.65;5.93;;;;;;;1.75;37.52;102185.41;4465184;32;34202;-77
2022/03/20 03:03:11;;;;;;;14.87;5.72;;;;;;;1.64;37.63;102185.06;4469419;32;34605;-77
2022/03/20 03:05:58;;;;;;;12.88;5.18;;;;;;;1.60;37.77;102195.44;4478650;32;34427;-77
2022/03/20 03:11:50;;;;;;;14.18;6.30;;;;;;;1.46;38.23;102207.94;4480457;32;34245;-77
2022/03/20 03:17:40;;;;;;;13.00;6.10;;;;;;;1.34;38.83;102214.84;4480537;32;34871;-76
2022/03/20 03:20:27;;;;;;;13.13;5.75;;;;;;;1.63;38.18;102219.38;4481139;32;34700;-76
2022/03/20 03:23:14;;;;;;;14.02;6.70;;;;;;;1.51;38.45;102220.88;4481179;32;34096;-77
2022/03/20 03:26:00;;;;;;;13.07;6.18;;;;;;;1.50;38.88;102227.28;4478717;32;35561;-76
2022/03/20 03:28:46;;;;;;;15.35;5.97;;;;;;;0.92;39.61;102234.34;4481451;32;35041;-76
2022/03/20 03:31:33;;;;;;;13.82;6.20;;;;;;;1.30;39.34;102230.56;4475381;32;33535;-76
2022/03/20 03:37:24;;;;;;;15.93;6.55;;;;;;;1.51;38.59;102242.50;4480517;32;34616;-77
2022/03/20 03:40:11;;;;;;;13.13;6.60;;;;;;;1.18;39.24;102240.16;4481400;32;35731;-76
2022/03/20 03:42:58;;;;;;;14.02;6.45;;;;;;;1.08;39.42;102255.78;4481137;32;34881;-76
2022/03/20 03:45:45;;;;;;;11.32;6.25;;;;;;;1.07;39.67;102251.41;4457332;32;35294;-76
2022/03/20 03:48:32;;;;;;;14.60;7.18;;;;;;;1.29;39.34;102261.31;4469075;32;34530;-76
2022/03/20 03:51:21;;;;;;;13.38;6.40;;;;;;;1.21;39.54;102263.25;4480492;32;34871;-77
2022/03/20 03:54:08;;;;;;;13.15;6.35;;;;;;;1.32;39.45;102269.03;4481343;32;35526;-76
2022/03/20 03:56:55;;;;;;;14.60;7.07;;;;;;;1.07;39.94;102273.00;4481495;32;35112;-76
2022/03/20 03:59:41;;;;;;;15.23;6.68;;;;;;;1.19;39.80;102274.22;4474203;32;35262;-76
2022/03/20 04:02:29;;;;;;;14.63;6.85;;;;;;;1.04;40.14;102270.69;4466132;32;35575;-76
2022/03/20 04:05:17;;;;;;;16.10;7.20;;;;;;;1.21;39.97;102271.34;4481210;32;34673;-76
2022/03/20 04:08:06;;;;;;;14.90;7.00;;;;;;;1.35;39.82;102276.75;4478655;32;32899;-76
2022/03/20 04:10:53;;;;;;;16.25;8.05;;;;;;;1.26;40.24;102282.44;4478563;32;35433;-76
2022/03/20 04:13:41;;;;;;;14.43;7.05;;;;;;;1.32;39.87;102285.25;4480804;32;35018;-76
2022/03/20 04:16:27;;;;;;;12.90;6.70;;;;;;;0.88;40.84;102294.13;4481204;32;34691;-76
2022/03/20 04:19:14;;;;;;;12.85;6.53;;;;;;;0.89;40.98;102295.78;4479531;32;35008;-76
2022/03/20 04:22:00;;;;;;;18.37;7.60;;;;;;;0.91;41.21;102292.88;4480473;32;34669;-76
2022/03/20 04:24:46;;;;;;;16.75;7.43;;;;;;;0.76;41.59;102287.44;4480760;32;36063;-76
2022/03/20 04:27:34;;;;;;;15.98;6.93;;;;;;;0.84;41.36;102297.34;4481034;32;35468;-76
2022/03/20 04:30:21;;;;;;;15.52;6.37;;;;;;;0.67;41.94;102297.47;4481146;32;34164;-76
2022/03/20 04:33:08;;;;;;;16.10;6.80;;;;;;;0.76;41.71;102300.09;4479375;32;35861;-76
2022/03/20 04:35:54;;;;;;;16.30;6.53;;;;;;;0.78;41.64;102304.31;4466861;32;34903;-76
2022/03/20 04:38:41;;;;;;;14.73;7.68;;;;;;;0.93;41.37;102311.59;4480754;32;34809;-76
2022/03/20 04:41:27;;;;;;;13.80;7.25;;;;;;;0.85;41.81;102316.06;4478977;32;34385;-76
2022/03/20 04:44:13;;;;;;;21.45;8.20;;;;;;;0.84;42.09;102314.37;4480982;32;34198;-76
2022/03/20 04:46:59;;;;;;;20.60;8.45;;;;;;;1.04;41.70;102325.50;4480793;32;33835;-76
2022/03/20 04:59:01;;;;;;;14.48;7.20;;;;;;;1.12;41.67;102332.72;4470508;32;35698;-76
2022/03/20 05:01:47;;;;;;;14.20;7.20;;;;;;;0.99;41.83;102344.12;4480956;32;34557;-76
2022/03/20 05:04:34;;;;;;;16.60;8.32;;;;;;;0.76;42.41;102344.12;4467692;32;35284;-76
2022/03/20 05:07:20;;;;;;;19.62;8.52;;;;;;;1.04;41.88;102344.41;4474941;32;34663;-76
2022/03/20 05:13:20;;;;;;;18.20;7.72;;;;;;;0.50;43.41;102343.62;4479571;32;34422;-76
2022/03/20 05:16:08;;;;;;;19.12;8.05;;;;;;;0.54;43.25;102339.53;4480561;32;34763;-76
2022/03/20 05:18:55;;;;;;;18.10;8.30;;;;;;;0.64;43.14;102349.09;4480247;32;34587;-76
2022/03/20 05:21:41;;;;;;;15.10;8.10;;;;;;;0.69;43.25;102351.28;4468436;32;35889;-76
2022/03/20 05:24:28;;;;;;;17.48;8.30;;;;;;;0.78;43.07;102352.88;4462392;32;35154;-76
2022/03/20 05:27:14;;;;;;;16.20;7.62;;;;;;;0.89;43.01;102365.97;4480186;32;34185;-76
2022/03/20 05:30:00;;;;;;;15.45;7.85;;;;;;;0.89;43.01;102371.38;4479935;32;34709;-75
2022/03/20 05:32:48;;;;;;;16.75;7.72;;;;;;;0.76;43.36;102371.09;4480404;32;34918;-75
2022/03/20 05:35:34;;;;;;;15.93;8.23;;;;;;;0.64;43.58;102377.94;4468365;32;34863;-75
2022/03/20 05:38:20;;;;;;;18.17;8.52;;;;;;;0.72;43.67;102377.91;4478582;32;34064;-76
2022/03/20 05:44:16;;;;;;;17.48;7.75;;;;;;;0.73;44.04;102376.88;4479418;32;34943;-75
2022/03/20 05:47:04;;;;;;;18.17;8.10;;;;;;;0.67;43.91;102382.97;4463813;32;33348;-76
2022/03/20 05:49:50;;;;;;;14.30;7.37;;;;;;;1.11;43.24;102383.19;4480015;32;35103;-76
2022/03/20 05:52:36;;;;;;;14.80;7.93;;;;;;;0.92;43.83;102385.53;4480300;32;34684;-76
2022/03/20 05:58:01;;;;;;;17.48;7.97;;;;;;;1.19;43.56;102393.06;4464715;32;35485;-76
2022/03/20 05:58:30;;;;;;;16.10;8.15;;;;;;;1.40;42.68;102396.97;4479570;32;34711;-76
2022/03/20 06:01:16;;;;;;;17.77;8.30;;;;;;;1.19;43.05;102394.94;4480425;32;35072;-76
2022/03/20 06:04:03;;;;;;;17.48;7.97;;;;;;;1.48;42.38;102391.47;4479807;32;35209;-75
2022/03/20 06:06:50;;;;;;;18.35;8.80;;;;;;;1.67;42.27;102399.03;4480247;32;35967;-76
2022/03/20 06:09:37;;;;;;;17.92;8.07;;;;;;;1.51;42.49;102396.53;4479851;32;34364;-75
2022/03/20 06:12:23;;;;;;;18.00;8.48;;;;;;;1.77;42.02;102405.03;4475028;32;34667;-76
2022/03/20 06:15:11;;;;;;;19.20;9.45;;;;;;;1.79;42.28;102416.50;4477933;32;35593;-76
2022/03/20 06:17:57;;;;;;;16.90;8.43;;;;;;;1.88;41.89;102422.66;4469218;32;35910;-75
2022/03/20 06:20:45;;;;;;;15.48;7.87;;;;;;;1.70;42.42;102425.69;4464555;32;35049;-76
2022/03/20 06:23:32;;;;;;;17.10;8.48;;;;;;;1.17;43.52;102423.97;4479126;32;34268;-76
2022/03/20 06:26:18;;;;;;;20.70;9.48;;;;;;;1.52;43.15;102431.44;4479744;32;34441;-76
2022/03/20 06:29:05;;;;;;;29.08;13.88;;;;;;;1.67;42.83;102439.59;4466449;32;34946;-76
2022/03/20 06:31:52;;;;;;;19.10;8.90;;;;;;;2.10;42.25;102434.41;4477756;32;34453;-76
2022/03/20 06:34:39;;;;;;;14.55;7.62;;;;;;;2.10;42.11;102445.22;4475489;32;35325;-76
2022/03/20 06:37:25;;;;;;;15.93;7.68;;;;;;;2.05;41.67;102434.16;4482003;32;34626;-75
2022/03/20 06:40:14;;;;;;;15.20;6.93;;;;;;;2.13;41.51;102439.44;4481934;32;36197;-76
2022/03/20 06:43:01;;;;;;;13.23;6.55;;;;;;;2.34;40.36;102446.00;4468825;32;34327;-76
2022/03/20 06:45:47;;;;;;;16.05;8.05;;;;;;;2.61;39.80;102448.00;4480420;32;34193;-76
2022/03/20 06:48:34;;;;;;;13.80;7.80;;;;;;;3.11;39.14;102443.56;4468983;32;35624;-76
2022/03/20 06:51:22;;;;;;;14.48;6.57;;;;;;;3.02;39.20;102450.16;4468537;32;34925;-76
2022/03/20 06:54:08;;;;;;;15.45;6.72;;;;;;;3.29;39.06;102447.69;4469327;32;34556;-76
2022/03/20 06:56:55;;;;;;;18.50;7.45;;;;;;;2.97;38.89;102458.00;4481745;32;34307;-76
2022/03/20 06:59:41;;;;;;;14.38;7.62;;;;;;;3.01;39.19;102464.69;4481199;32;35287;-76
2022/03/20 07:02:27;;;;;;;14.10;7.15;;;;;;;3.32;38.70;102458.16;4480979;32;34491;-76
2022/03/20 07:05:14;;;;;;;12.15;7.12;;;;;;;3.38;39.23;102460.06;4481533;32;35509;-75
2022/03/20 07:08:00;;;;;;;13.48;6.20;;;;;;;3.70;38.13;102457.84;4458497;32;34125;-76
2022/03/20 07:10:47;;;;;;;12.48;6.87;;;;;;;3.47;38.11;102464.34;4477257;32;34677;-75
2022/03/20 07:13:48;;;;;;;14.57;7.07;;;;;;;3.63;37.12;102465.94;4473043;32;34548;-76
2022/03/20 07:16:36;;;;;;;13.27;6.62;;;;;;;3.34;38.34;102472.34;4479754;32;36116;-76
2022/03/20 07:19:23;;;;;;;13.62;7.10;;;;;;;3.86;37.34;102486.56;4481708;32;33752;-76
2022/03/20 07:22:11;;;;;;;12.07;6.62;;;;;;;4.06;36.82;102482.13;4480543;32;34708;-76
2022/03/20 07:29:29;;;;;;;14.25;7.20;;;;;;;3.98;36.23;102485.81;4474211;32;35003;-76
2022/03/20 07:31:09;;;;;;;15.90;7.32;;;;;;;4.64;35.91;102487.25;4478185;32;33843;-76
2022/03/20 07:33:55;;;;;;;11.10;6.68;;;;;;;4.64;36.21;102490.84;4478425;32;34616;-76
2022/03/20 07:36:44;;;;;;;14.20;7.22;;;;;;;4.68;35.66;102489.38;4481044;32;34831;-76
2022/03/20 07:39:32;;;;;;;14.50;7.37;;;;;;;5.01;34.98;102487.81;4460677;32;34653;-76
2022/03/20 07:42:19;;;;;;;13.07;6.85;;;;;;;4.94;34.89;102487.81;4473726;32;34708;-76
2022/03/20 07:45:08;;;;;;;12.18;7.05;;;;;;;4.78;35.11;102488.16;4477697;32;35551;-76
2022/03/20 07:47:54;;;;;;;14.65;6.93;;;;;;;4.91;35.31;102489.03;4469084;32;35950;-76
2022/03/20 07:50:40;;;;;;;12.57;6.62;;;;;;;5.24;34.70;102482.88;4480008;32;34349;-76
2022/03/20 07:53:29;;;;;;;15.48;7.20;;;;;;;5.19;34.74;102486.22;4480363;32;34850;-77
2022/03/20 07:56:19;;;;;;;12.32;6.30;;;;;;;5.16;34.81;102483.06;4476277;32;34704;-77
2022/03/20 07:59:06;;;;;;;13.62;6.62;;;;;;;5.24;34.37;102487.50;4477730;32;34841;-76
2022/03/20 08:01:53;;;;;;;12.70;6.72;;;;;;;5.53;33.23;102480.84;4469088;32;34558;-76
2022/03/20 08:04:40;;;;;;;14.70;7.53;;;;;;;5.18;33.54;102486.44;4468741;32;35001;-76
2022/03/20 08:07:26;;;;;;;15.00;8.23;;;;;;;5.21;34.27;102490.59;4478369;32;35516;-76
2022/03/20 08:10:13;;;;;;;13.45;7.20;;;;;;;5.34;34.49;102487.91;4475939;32;34860;-77
2022/03/20 08:12:59;;;;;;;13.50;6.93;;;;;;;5.65;34.25;102490.03;4470630;31;35473;-79
2022/03/20 08:15:47;;;;;;;13.32;6.62;;;;;;;5.52;33.26;102490.87;4478865;31;34302;-79
2022/03/20 08:18:33;;;;;;;13.93;7.45;;;;;;;5.89;33.49;102488.59;4468348;32;35213;-79
2022/03/20 08:21:19;;;;;;;14.25;7.72;;;;;;;5.97;33.56;102487.56;4480567;32;36908;-79
2022/03/20 08:24:06;;;;;;;13.15;7.07;;;;;;;6.35;32.84;102492.31;4479377;31;35118;-79
2022/03/20 08:26:53;;;;;;;11.00;6.40;;;;;;;6.12;34.12;102484.59;4479819;32;33881;-79
2022/03/20 08:29:42;;;;;;;13.05;6.28;;;;;;;6.20;32.01;102485.22;4480298;32;35487;-79
2022/03/20 08:32:30;;;;;;;11.25;6.20;;;;;;;6.16;31.88;102481.25;4459093;32;34516;-80
2022/03/20 08:35:16;;;;;;;12.50;6.75;;;;;;;6.50;32.07;102473.84;4480333;32;34727;-79
2022/03/20 08:38:04;;;;;;;11.45;6.20;;;;;;;6.80;31.33;102476.03;4472444;32;33977;-79
2022/03/20 08:40:51;;;;;;;11.45;5.57;;;;;;;6.59;30.46;102478.00;4477532;32;34619;-79
2022/03/20 08:43:40;;;;;;;13.20;6.40;;;;;;;6.63;31.21;102472.94;4463083;32;35008;-81
2022/03/20 08:46:27;;;;;;;9.45;5.72;;;;;;;6.68;30.39;102482.16;4479765;32;35589;-79
2022/03/20 08:49:13;;;;;;;11.82;6.05;;;;;;;6.55;31.09;102482.22;4477974;32;33612;-80
2022/03/20 08:52:00;;;;;;;12.65;5.65;;;;;;;6.21;30.83;102478.75;4466372;32;34625;-80
2022/03/20 08:54:46;;;;;;;11.07;5.55;;;;;;;6.64;31.13;102483.66;4478113;32;35888;-80
2022/03/20 08:57:34;;;;;;;13.48;5.97;;;;;;;6.61;31.20;102483.25;4470254;32;34584;-80
2022/03/20 09:00:23;;;;;;;9.85;5.95;;;;;;;7.36;30.74;102480.75;4468872;32;35098;-80
2022/03/20 09:03:10;;;;;;;10.32;5.50;;;;;;;7.58;30.52;102479.34;4464242;31;34266;-80
2022/03/20 09:05:57;;;;;;;12.30;5.78;;;;;;;7.49;29.35;102475.22;4469692;32;35291;-79
2022/03/20 09:08:46;;;;;;;10.77;5.93;;;;;;;7.14;29.97;102481.13;4476879;32;35554;-79
2022/03/20 09:11:32;;;;;;;12.77;6.28;;;;;;;6.69;29.89;102472.12;4464476;32;35762;-79
2022/03/20 09:14:19;;;;;;;12.57;5.47;;;;;;;6.89;30.08;102464.69;4477445;32;35557;-79
2022/03/20 09:20:27;;;;;;;11.02;5.72;;;;;;;7.85;29.24;102463.59;4431099;32;35621;-79
2022/03/20 09:23:14;;;;;;;10.57;4.97;;;;;;;8.28;27.42;102465.47;4464996;32;34139;-81
2022/03/20 09:26:01;;;;;;;9.50;5.57;;;;;;;8.38;28.32;102462.22;4460674;32;34263;-80
2022/03/20 09:28:49;;;;;;;8.85;4.65;;;;;;;8.52;28.14;102460.19;4467374;32;33799;-80
2022/03/20 09:31:35;;;;;;;11.07;5.60;;;;;;;8.33;27.91;102445.66;4466956;32;34684;-80
2022/03/20 09:34:27;;;;;;;10.30;5.70;;;;;;;8.58;26.80;102436.59;4467597;32;35259;-80
2022/03/20 09:37:14;;;;;;;10.00;5.60;;;;;;;8.28;27.86;102429.09;4480701;32;35036;-80
2022/03/20 09:40:02;;;;;;;10.70;4.80;;;;;;;8.80;28.18;102448.72;4480015;32;37707;-80
2022/03/20 09:42:48;;;;;;;12.85;5.45;;;;;;;8.90;25.96;102443.50;4477904;32;35407;-80
2022/03/20 09:45:35;;;;;;;11.48;6.05;;;;;;;9.16;27.28;102439.59;4479445;32;34242;-80
2022/03/20 09:48:21;;;;;;;9.90;5.32;;;;;;;9.16;26.12;102445.06;4479859;32;34517;-80
2022/03/20 09:51:09;;;;;;;11.05;5.45;;;;;;;9.14;26.72;102440.88;4480305;32;36633;-80
2022/03/20 09:53:56;;;;;;;8.50;5.30;;;;;;;8.31;27.40;102442.31;4461717;32;34584;-81
2022/03/20 09:56:43;;;;;;;9.63;5.40;;;;;;;8.75;25.96;102452.12;4480028;32;34029;-80
2022/03/20 09:59:30;;;;;;;7.68;4.68;;;;;;;8.19;26.81;102438.69;4465621;32;34620;-80
2022/03/20 10:02:18;;;;;;;11.12;5.12;;;;;;;9.34;26.03;102441.41;4458544;32;35031;-80
2022/03/20 10:05:07;;;;;;;9.30;5.30;;;;;;;9.58;24.87;102435.97;4479722;32;34587;-80
2022/03/20 10:08:10;;;;;;;9.95;5.18;;;;;;;9.75;25.03;102428.72;4478926;32;34201;-80
2022/03/20 10:11:16;;;;;;;12.55;5.30;;;;;;;10.09;25.62;102437.19;4459471;32;35272;-80
2022/03/20 10:14:17;;;;;;;9.70;5.50;;;;;;;10.06;24.97;102416.56;4479296;32;35186;-79
2022/03/20 10:17:07;;;;;;;9.30;5.45;;;;;;;10.61;24.23;102423.50;4457266;32;35284;-80
2022/03/20 10:19:53;;;;;;;9.65;5.78;;;;;;;11.12;23.85;102420.94;4464542;32;33835;-81
2022/03/20 10:22:40;;;;;;;10.88;5.80;;;;;;;11.73;23.29;102421.97;4469885;32;34347;-80
2022/03/20 10:25:26;;;;;;;12.73;5.80;;;;;;;9.98;25.73;102416.09;4477447;32;34929;-80
2022/03/20 10:28:13;;;;;;;11.23;5.85;;;;;;;10.78;25.13;102418.91;4464785;32;34224;-81
2022/03/20 10:31:01;;;;;;;11.00;5.50;;;;;;;11.61;23.31;102411.06;4475003;32;34145;-81
2022/03/20 10:34:04;;;;;;;14.93;5.78;;;;;;;11.87;23.09;102408.75;4454376;32;35240;-79
2022/03/20 10:36:51;;;;;;;11.55;6.00;;;;;;;12.19;22.60;102408.09;4468427;32;35967;-80
2022/03/20 10:39:41;;;;;;;8.60;5.30;;;;;;;11.60;22.96;102409.41;4476955;32;35147;-81
2022/03/20 10:42:28;;;;;;;9.73;5.75;;;;;;;12.03;22.76;102409.78;4477035;32;33770;-80
2022/03/20 10:45:15;;;;;;;10.68;6.00;;;;;;;11.96;22.46;102415.47;4466450;32;34618;-80
2022/03/20 10:48:02;;;;;;;12.07;5.95;;;;;;;12.04;23.16;102414.19;4479033;32;35958;-81
2022/03/20 10:50:49;;;;;;;11.23;5.68;;;;;;;12.36;21.93;102408.88;4465775;32;34945;-81
2022/03/20 10:53:36;;;;;;;10.73;5.97;;;;;;;12.78;22.74;102409.09;4455430;32;34278;-79
2022/03/20 10:56:23;;;;;;;11.77;5.85;;;;;;;12.17;22.12;102399.28;4467637;32;34163;-79
2022/03/20 10:59:16;;;;;;;9.68;5.43;;;;;;;13.65;21.08;102395.31;4461194;32;34992;-80
2022/03/20 11:02:05;;;;;;;11.93;5.90;;;;;;;13.98;20.34;102398.84;4466650;32;36074;-80
2022/03/20 11:04:53;;;;;;;10.40;5.82;;;;;;;13.66;20.50;102381.28;4479120;32;34263;-80
2022/03/20 11:07:39;;;;;;;10.60;6.30;;;;;;;14.67;19.25;102375.72;4467390;32;35524;-78
2022/03/20 11:10:26;;;;;;;11.50;6.18;;;;;;;14.03;20.42;102379.56;4474042;32;35824;-80
2022/03/20 11:13:14;;;;;;;11.98;5.93;;;;;;;13.94;20.15;102385.63;4475973;32;34865;-80
2022/03/20 11:16:04;;;;;;;10.68;6.07;;;;;;;13.45;20.49;102366.53;4476052;32;34276;-80
2022/03/20 11:18:52;;;;;;;9.45;5.60;;;;;;;13.03;20.68;102369.16;4479762;32;35472;-78
2022/03/20 11:21:40;;;;;;;10.70;5.62;;;;;;;12.66;21.81;102358.06;4469561;32;34965;-79
2022/03/20 11:24:28;;;;;;;11.63;6.25;;;;;;;12.90;24.32;102367.69;4468814;32;34623;-80
2022/03/20 11:27:35;;;;;;;12.40;6.10;;;;;;;13.11;22.92;102363.19;4469051;32;35139;-81
2022/03/20 11:30:30;;;;;;;10.85;6.28;;;;;;;13.11;21.56;102357.69;4455726;32;34668;-80
2022/03/20 11:33:20;;;;;;;10.68;5.85;;;;;;;13.24;22.13;102359.19;4463975;32;35867;-79
2022/03/20 11:36:07;;;;;;;10.30;6.33;;;;;;;11.10;24.76;102343.50;4458303;32;35508;-80
2022/03/20 11:39:10;;;;;;;10.27;5.97;;;;;;;10.42;23.45;102348.87;4471020;32;33734;-80
2022/03/20 11:42:30;;;;;;;9.05;5.37;;;;;;;10.88;23.50;102337.94;4475021;32;34684;-80
2022/03/20 11:45:20;;;;;;;9.93;5.75;;;;;;;11.65;23.68;102338.06;4458235;31;34491;-81
2022/03/20 11:48:15;;;;;;;8.43;5.30;;;;;;;11.14;24.23;102325.47;4473919;32;34550;-80
2022/03/20 11:51:07;;;;;;;12.02;5.40;;;;;;;12.08;22.83;102324.69;4474569;32;33795;-82
2022/03/20 11:54:03;;;;;;;8.77;5.40;;;;;;;11.41;22.16;102322.88;4466184;32;34145;-80
2022/03/20 11:56:50;;;;;;;8.38;4.65;;;;;;;11.07;23.26;102324.78;4477005;32;34955;-81
2022/03/20 11:59:46;;;;;;;11.07;5.35;;;;;;;10.96;23.02;102318.31;4473915;32;33575;-80
2022/03/20 12:02:51;;;;;;;10.45;5.05;;;;;;;11.14;23.30;102309.84;4475684;32;34259;-81
2022/03/20 12:05:41;;;;;;;;;;;;;;;11.23;21.83;102318.47;4479869;31;35623;-80
2022/03/20 12:08:45;;;;;;;11.82;6.45;;;;;;;11.63;22.84;102306.47;4478179;32;35390;-80
2022/03/20 12:12:07;;;;;;;12.10;6.07;;;;;;;11.29;23.74;102305.69;4480077;32;36051;-79
2022/03/20 12:14:56;;;;;;;9.10;4.87;;;;;;;11.56;23.85;102305.81;4470633;32;34958;-80
2022/03/20 12:18:05;;;;;;;8.93;4.87;;;;;;;11.45;22.45;102293.84;4480489;31;34601;-79
2022/03/20 12:21:55;;;;;;;9.00;5.10;;;;;;;11.50;24.14;102307.66;4458599;32;34455;-79
2022/03/20 12:24:54;;;;;;;10.45;5.50;;;;;;;11.30;22.24;102296.34;4480356;32;34213;-81
2022/03/20 12:27:43;;;;;;;8.18;4.28;;;;;;;10.91;23.24;102296.28;4464492;32;34598;-80
2022/03/20 12:30:30;;;;;;;9.00;4.45;;;;;;;11.27;22.59;102303.19;4479470;32;35523;-81
2022/03/20 12:33:27;;;;;;;6.57;3.60;;;;;;;11.07;22.26;102297.34;4465378;32;33924;-80
2022/03/20 12:36:27;;;;;;;9.50;4.40;;;;;;;10.56;22.25;102289.09;4456317;32;35051;-80
2022/03/20 12:39:47;;;;;;;8.70;4.53;;;;;;;10.64;22.36;102294.16;4468989;32;33669;-81
2022/03/20 12:42:40;;;;;;;9.02;4.87;;;;;;;10.53;22.22;102292.31;4457133;32;34646;-80
2022/03/20 12:45:27;;;;;;;8.95;4.20;;;;;;;10.54;23.45;102288.50;4466061;32;34801;-80
2022/03/20 12:48:16;;;;;;;7.20;3.90;;;;;;;10.98;23.57;102280.47;4471809;32;34682;-80
2022/03/20 12:51:11;;;;;;;10.43;4.37;;;;;;;11.25;22.24;102276.00;4463914;32;34185;-80
2022/03/20 12:54:03;;;;;;;10.45;4.55;;;;;;;11.19;22.36;102267.94;4475697;32;35230;-81
2022/03/20 12:56:51;;;;;;;8.00;4.25;;;;;;;11.02;21.87;102267.94;4480434;32;35027;-81
2022/03/20 12:59:38;;;;;;;10.48;4.10;;;;;;;10.74;21.54;102266.94;4470985;32;34393;-81
2022/03/20 13:02:24;;;;;;;9.50;4.97;;;;;;;11.00;21.56;102259.12;4476172;32;34171;-79
2022/03/20 13:05:11;;;;;;;8.43;4.35;;;;;;;10.86;22.76;102263.28;4479854;32;34727;-81
2022/03/20 13:07:57;;;;;;;8.95;4.47;;;;;;;11.18;22.70;102260.78;4480997;32;34932;-80
2022/03/20 13:10:44;;;;;;;8.65;4.53;;;;;;;11.69;21.53;102256.00;4478971;32;34562;-81
2022/03/20 13:13:36;;;;;;;9.18;4.78;;;;;;;11.74;21.87;102252.50;4471886;32;34255;-81
2022/03/20 13:16:26;;;;;;;8.20;4.62;;;;;;;11.53;21.42;102251.41;4477627;32;35289;-80
2022/03/20 13:19:12;;;;;;;8.45;4.60;;;;;;;11.78;21.97;102249.00;4478124;32;35883;-80
2022/03/20 13:22:09;;;;;;;9.43;4.87;;;;;;;12.02;21.10;102244.09;4480615;32;33537;-78
2022/03/20 13:24:56;;;;;;;8.35;4.75;;;;;;;9.97;22.81;102239.97;4479956;32;34241;-81
2022/03/20 13:27:43;;;;;;;7.32;4.55;;;;;;;11.19;21.47;102241.31;4479743;32;34706;-80
2022/03/20 13:30:36;;;;;;;9.23;4.55;;;;;;;11.43;22.08;102241.09;4465120;32;35036;-80
2022/03/20 13:33:35;;;;;;;7.72;4.35;;;;;;;11.63;21.08;102240.56;4479728;32;33467;-80
2022/03/20 13:36:24;;;;;;;7.53;4.30;;;;;;;11.69;19.97;102237.59;4464617;32;33737;-81